Salford, Pennsylvania
Current Conditions -  °F | °C
As of 11:54 AM on Tuesday 27 Jan 2015 (Local Time) from KPTW Reporting Station
Few Clouds Few Clouds  
Wind Chill: 17°   Ceiling: Unl
Heat Index: 28°   Visibility: 10mi
Dew Point: 11°   Wind: 13mph
Humidity: 49%   Direction: 310°NW
Pressure: 29.76"   Gusts: NA
Location:  40.3°N, 75.45°W
Report Text: KPTW 271654Z AUTO 31011KT 10SM FEW110 M02/M12 A2976 RMK AO2 SLP078 T10221117
Loading
Personal Weather Stations






























Interactive Weather Map New forecast layout! Learn more

10-Day Weather Forecast

Advertisements
Track Severe Weather on mobile